aviador You're here:

KBLU Decoded Metar

EMIGRANT GAP in CA, USA
Report Time2017-05-30 10:52:00
UTC Time2017-05-30 11:06:37
Flight Rules vfr VFR
Wind050° at 05 kt
W.Decomp.*RWY 33: 2.2 kt HW 4.5 kt RCW
W.Rank050° ranks 3
Current wind is below 050° avg. (5.4)
Visibility9999 m
Phenomena:N/A
Clouds:N/A
Expected CloudBase > 5,200 ft AGL from Temp-Dew spread
CeilingNone
Temp16°C (ISA +11)
Dew Point03°C (42% RH)
AAT12.7°C
QNH1019 hPa
Density Alt6,526 ft
Elevation5,279 ft
Report Wrong Elevation
Raw Report
KBLU 301052Z AUTO 05005KT 10SM CLR 16/03 A3008 RMK AO2 SLP094
T01610028 TSNO=

Extra information for KBLU:More info

Metar Taf Metar & Taf Last 4 Metars F.Rules Stats Wind Profile Meteogram Temp Stats Airport Information Weather charts Add Link Nearby VenuesMetar ALERT Operation Metar Decoded Social comments

AIRNAV info for KBLU